createdAt,value
2019-05-26T00:00:09.623Z,74.50
2019-05-26T03:02:25.155Z,84.90
2019-05-26T03:04:54.430Z,84.70
2019-05-26T03:07:25.748Z,85.10
2019-05-26T03:09:56.624Z,85.40
2019-05-26T03:12:28.703Z,85.00
2019-05-26T03:15:00.583Z,85.20
2019-05-26T03:17:33.628Z,85.30
2019-05-26T03:20:04.407Z,84.90
2019-05-26T03:22:36.134Z,85.10
2019-05-26T03:25:05.936Z,84.90
2019-05-26T03:27:35.204Z,85.10
2019-05-26T03:30:07.273Z,85.40
2019-05-26T03:32:36.683Z,85.10
2019-05-26T03:35:09.911Z,85.20
2019-05-26T03:37:39.290Z,85.40
2019-05-26T03:40:10.423Z,85.50
2019-05-26T03:42:39.701Z,85.20
2019-05-26T03:45:09.830Z,85.30
2019-05-26T03:47:39.151Z,85.10
2019-05-26T03:50:08.865Z,86.30
2019-05-26T03:52:38.549Z,85.50
2019-05-26T03:55:07.875Z,84.80
2019-05-26T03:57:37.668Z,84.40
2019-05-26T04:00:10.087Z,84.40
2019-05-26T04:02:39.648Z,84.50
2019-05-26T04:05:09.086Z,84.90
2019-05-26T04:07:38.467Z,84.70
2019-05-26T04:10:08.369Z,84.00
2019-05-26T04:12:37.651Z,84.40
2019-05-26T04:15:08.376Z,84.50
2019-05-26T04:17:37.671Z,84.40
2019-05-26T04:20:09.100Z,84.70
2019-05-26T04:22:38.362Z,85.30
2019-05-26T04:25:08.079Z,85.60
2019-05-26T04:27:37.348Z,85.40
2019-05-26T04:30:07.903Z,85.10
2019-05-26T04:32:37.173Z,85.00
2019-05-26T04:35:07.115Z,85.00
2019-05-26T04:37:36.384Z,84.80
2019-05-26T04:40:25.984Z,84.50
2019-05-26T04:42:39.774Z,84.70
2019-05-26T04:45:09.397Z,84.60
2019-05-26T04:47:38.666Z,84.20
2019-05-26T04:50:08.576Z,84.20
2019-05-26T04:52:37.857Z,84.00
2019-05-26T04:55:10.715Z,83.70
2019-05-26T04:57:39.995Z,83.30
2019-05-26T05:00:10.796Z,82.80
2019-05-26T05:02:40.089Z,83.60
2019-05-26T05:05:09.796Z,82.20
2019-05-26T05:07:39.083Z,82.00
2019-05-26T05:10:08.490Z,82.10
2019-05-26T05:12:37.771Z,82.70
2019-05-26T05:15:07.892Z,82.00
2019-05-26T05:17:37.439Z,82.00
2019-05-26T05:20:08.416Z,81.00
2019-05-26T05:22:37.698Z,80.80
2019-05-26T05:25:14.669Z,80.80
2019-05-26T05:27:41.964Z,80.70
2019-05-26T05:30:12.730Z,80.50
2019-05-26T05:32:41.999Z,79.80
2019-05-26T05:35:12.170Z,80.00
2019-05-26T05:37:41.438Z,79.90
2019-05-26T05:40:13.248Z,79.80
2019-05-26T05:42:42.843Z,80.50
2019-05-26T05:45:12.858Z,80.80
2019-05-26T05:47:42.130Z,80.50
2019-05-26T05:50:11.648Z,80.40
2019-05-26T05:52:40.914Z,79.90
2019-05-26T05:55:10.614Z,79.40
2019-05-26T05:57:40.188Z,79.70
2019-05-26T06:00:10.639Z,80.50
2019-05-26T06:02:40.227Z,79.90
2019-05-26T06:05:10.162Z,79.60
2019-05-26T06:07:39.756Z,78.90
2019-05-26T06:10:09.667Z,78.30
2019-05-26T06:12:39.110Z,77.80
2019-05-26T06:15:12.965Z,76.80
2019-05-26T06:17:42.952Z,77.20
2019-05-26T06:20:13.938Z,76.70
2019-05-26T06:22:43.202Z,76.50
2019-05-26T06:25:13.071Z,76.60
2019-05-26T06:27:42.335Z,75.90
2019-05-26T06:30:12.772Z,75.10
2019-05-26T06:32:42.042Z,74.10
2019-05-26T06:35:11.378Z,73.70
2019-05-26T06:37:40.651Z,73.00
2019-05-26T06:40:11.254Z,71.30
2019-05-26T06:42:40.521Z,71.50
2019-05-26T06:45:12.675Z,71.70
2019-05-26T06:47:41.932Z,72.30
2019-05-26T06:50:11.807Z,72.10
2019-05-26T06:52:41.110Z,70.80
2019-05-26T06:55:12.292Z,69.80
2019-05-26T06:57:41.938Z,69.20
2019-05-26T07:00:11.489Z,69.10
2019-05-26T07:02:40.777Z,68.90
2019-05-26T07:05:10.502Z,68.70
2019-05-26T07:07:39.831Z,69.30
2019-05-26T07:10:09.665Z,68.20
2019-05-26T07:12:38.946Z,68.50
2019-05-26T07:15:10.263Z,69.20
2019-05-26T07:17:39.563Z,68.50
2019-05-26T07:20:09.529Z,67.00
2019-05-26T07:22:38.854Z,66.90
2019-05-26T07:25:09.462Z,66.80
2019-05-26T07:27:38.750Z,65.60
2019-05-26T07:30:09.758Z,63.20
2019-05-26T07:32:39.207Z,63.60
2019-05-26T07:35:08.946Z,63.00
2019-05-26T07:37:38.400Z,60.80
2019-05-26T07:40:07.759Z,62.30
2019-05-26T07:42:37.031Z,59.90
2019-05-26T07:45:07.677Z,59.40
2019-05-26T07:47:36.943Z,59.00
2019-05-26T07:50:07.183Z,59.20
2019-05-26T07:52:36.483Z,58.60
2019-05-26T07:55:06.634Z,58.70
2019-05-26T07:57:36.165Z,58.70
2019-05-26T08:00:07.395Z,59.70
2019-05-26T08:02:36.684Z,57.90
2019-05-26T08:05:07.334Z,57.00
2019-05-26T08:07:36.961Z,56.50
2019-05-26T08:10:07.170Z,57.30
2019-05-26T08:12:36.466Z,56.70
2019-05-26T08:15:07.480Z,56.90
2019-05-26T08:17:36.830Z,56.30
2019-05-26T08:20:08.116Z,57.20
2019-05-26T08:22:37.499Z,56.60
2019-05-26T08:25:08.110Z,56.10
2019-05-26T08:27:37.405Z,54.40
2019-05-26T08:30:10.246Z,53.50
2019-05-26T08:32:39.530Z,54.30
2019-05-26T08:35:10.098Z,54.50
2019-05-26T08:37:39.370Z,53.80
2019-05-26T08:40:17.991Z,53.60
2019-05-26T08:42:49.948Z,52.90
2019-05-26T08:45:22.003Z,53.90
2019-05-26T08:47:52.256Z,52.20
2019-05-26T08:50:22.554Z,53.60
2019-05-26T08:52:51.839Z,53.50
2019-05-26T08:55:21.786Z,52.90
2019-05-26T08:57:51.349Z,51.30
2019-05-26T09:00:22.746Z,51.40
2019-05-26T09:02:52.053Z,51.80
2019-05-26T09:05:22.365Z,51.30
2019-05-26T09:07:51.629Z,52.10
2019-05-26T09:10:21.079Z,51.10
2019-05-26T09:13:00.709Z,50.70
2019-05-26T09:15:22.440Z,50.60
2019-05-26T09:17:51.700Z,50.70
2019-05-26T09:20:23.007Z,50.90
2019-05-26T09:22:52.345Z,50.90
2019-05-26T09:25:21.865Z,51.60
2019-05-26T09:27:51.128Z,50.00
2019-05-26T09:30:21.244Z,50.50
2019-05-26T09:32:50.513Z,51.10
2019-05-26T09:35:19.785Z,52.30
2019-05-26T09:37:49.058Z,52.10
2019-05-26T09:40:18.543Z,51.50
2019-05-26T09:42:47.812Z,52.00
2019-05-26T09:45:17.606Z,52.60
2019-05-26T09:47:46.879Z,51.90
2019-05-26T09:50:16.314Z,50.80
2019-05-26T09:52:45.579Z,51.00
2019-05-26T09:55:15.326Z,50.20
2019-05-26T09:57:44.682Z,50.60
2019-05-26T10:00:16.288Z,50.50
2019-05-26T10:02:45.902Z,50.80
2019-05-26T10:05:15.810Z,51.20
2019-05-26T10:07:45.218Z,50.90
2019-05-26T10:10:15.238Z,50.80
2019-05-26T10:12:44.505Z,50.60
2019-05-26T10:15:14.681Z,49.30
2019-05-26T10:17:43.960Z,47.90
2019-05-26T10:20:13.755Z,48.80
2019-05-26T10:22:43.026Z,49.60
2019-05-26T10:25:12.530Z,50.40
2019-05-26T10:27:41.801Z,51.50
2019-05-26T10:30:15.399Z,49.80
2019-05-26T10:32:44.666Z,50.60
2019-05-26T10:35:14.405Z,49.00
2019-05-26T10:37:43.671Z,48.20
2019-05-26T10:40:13.570Z,48.50
2019-05-26T10:42:42.842Z,49.30
2019-05-26T10:45:13.447Z,47.30
2019-05-26T10:47:42.710Z,46.50
2019-05-26T10:50:12.107Z,46.90
2019-05-26T10:52:41.371Z,47.40
2019-05-26T10:55:10.967Z,47.40
2019-05-26T10:57:40.247Z,47.10
2019-05-26T11:00:10.142Z,46.90
2019-05-26T11:02:39.470Z,46.90
2019-05-26T11:05:09.074Z,46.50
2019-05-26T11:07:38.343Z,45.70
2019-05-26T11:10:07.938Z,45.50
2019-05-26T11:12:37.415Z,43.70
2019-05-26T11:15:11.846Z,44.60
2019-05-26T11:17:41.431Z,42.10
2019-05-26T11:20:12.374Z,43.70
2019-05-26T11:22:41.654Z,43.40
2019-05-26T11:25:12.053Z,43.40
2019-05-26T11:27:41.319Z,44.20
2019-05-26T11:30:12.219Z,43.60
2019-05-26T11:32:41.555Z,43.70
2019-05-26T11:35:11.172Z,42.60
2019-05-26T11:37:40.434Z,43.30
2019-05-26T11:40:10.346Z,42.00
2019-05-26T11:42:39.611Z,40.80
2019-05-26T11:45:09.745Z,41.30
2019-05-26T11:47:39.304Z,41.40
2019-05-26T11:50:09.015Z,41.70
2019-05-26T11:52:38.351Z,39.90
2019-05-26T11:55:08.275Z,40.10
2019-05-26T11:57:37.866Z,38.70
2019-05-26T12:00:08.731Z,38.30
2019-05-26T12:02:38.971Z,39.30
2019-05-26T12:05:09.786Z,36.50
2019-05-26T12:07:39.050Z,37.40
2019-05-26T12:10:13.650Z,38.60
2019-05-26T12:12:40.928Z,38.30
2019-05-26T12:15:11.137Z,39.40
2019-05-26T12:17:40.411Z,39.50
2019-05-26T12:20:09.926Z,38.90
2019-05-26T12:22:39.187Z,37.70
2019-05-26T12:25:09.191Z,38.40
2019-05-26T12:27:38.465Z,39.50
2019-05-26T12:30:10.069Z,36.60
2019-05-26T12:32:39.339Z,35.50
2019-05-26T12:35:09.441Z,34.30
2019-05-26T12:37:38.738Z,34.00
2019-05-26T12:40:10.499Z,35.00
2019-05-26T12:42:40.430Z,34.10
2019-05-26T12:45:10.545Z,34.00
2019-05-26T12:47:39.811Z,36.20
2019-05-26T12:50:19.943Z,33.70
2019-05-26T12:53:32.526Z,33.40
2019-05-26T12:56:43.109Z,35.40
2019-05-26T13:02:17.128Z,37.80
2019-05-26T13:04:46.395Z,35.50
2019-05-26T13:07:15.717Z,36.00
2019-05-26T13:09:45.343Z,37.10
2019-05-26T13:12:14.873Z,36.50
2019-05-26T13:14:44.111Z,35.50
2019-05-26T13:17:13.960Z,35.30
2019-05-26T13:19:43.291Z,33.50
2019-05-26T13:22:12.558Z,34.20
2019-05-26T13:24:42.902Z,34.60
2019-05-26T13:27:12.322Z,33.80
2019-05-26T13:29:41.590Z,34.90
2019-05-26T13:32:10.857Z,33.90
2019-05-26T13:34:40.125Z,34.60
2019-05-26T13:37:09.412Z,35.30
2019-05-26T13:39:38.679Z,37.70
2019-05-26T13:42:07.940Z,35.70
2019-05-26T13:44:38.179Z,34.30
2019-05-26T13:47:07.759Z,32.80
2019-05-26T13:49:37.075Z,33.30
2019-05-26T13:52:06.379Z,31.50
2019-05-26T13:54:35.647Z,31.30
2019-05-26T13:57:05.894Z,32.00
2019-05-26T13:59:35.467Z,30.50
2019-05-26T14:02:04.911Z,32.10
2019-05-26T14:04:34.176Z,30.20
2019-05-26T14:07:03.621Z,31.00
2019-05-26T14:09:32.946Z,31.30
2019-05-26T14:12:02.223Z,31.00
2019-05-26T14:14:31.489Z,30.90
2019-05-26T14:17:02.198Z,28.40
2019-05-26T14:19:33.297Z,29.60
2019-05-26T14:22:02.585Z,29.50
2019-05-26T14:24:31.842Z,29.70
2019-05-26T14:27:01.142Z,30.00
2019-05-26T14:29:30.451Z,29.60
2019-05-26T14:31:59.723Z,29.20
2019-05-26T14:34:28.983Z,29.70
2019-05-26T14:36:58.251Z,31.60
2019-05-26T14:39:27.535Z,32.20
2019-05-26T14:41:56.799Z,31.70
2019-05-26T14:44:26.063Z,28.70
2019-05-26T14:46:56.430Z,27.50
2019-05-26T14:49:26.144Z,27.80
2019-05-26T14:51:55.403Z,31.40
2019-05-26T14:54:24.668Z,32.60
2019-05-26T14:56:53.941Z,32.20
2019-05-26T14:59:23.200Z,31.10
2019-05-26T15:01:53.032Z,28.80
2019-05-26T15:04:22.535Z,26.70
2019-05-26T15:06:52.044Z,25.60
2019-05-26T15:09:25.218Z,26.20
2019-05-26T15:11:52.591Z,26.90
2019-05-26T15:14:21.850Z,26.50
2019-05-26T15:16:51.401Z,26.00
2019-05-26T15:19:20.663Z,25.90
2019-05-26T15:21:49.957Z,26.20
2019-05-26T15:24:19.191Z,26.90
2019-05-26T15:26:48.460Z,26.10
2019-05-26T15:29:17.735Z,26.00
2019-05-26T15:31:46.993Z,27.40
2019-05-26T15:34:16.276Z,27.90
2019-05-26T15:36:45.812Z,28.80
2019-05-26T15:39:15.084Z,28.80
2019-05-26T15:41:44.348Z,30.10
2019-05-26T15:44:13.620Z,30.90
2019-05-26T15:46:43.123Z,30.30
2019-05-26T15:49:12.406Z,28.70
2019-05-26T15:51:41.670Z,28.20
2019-05-26T15:54:10.946Z,28.60
2019-05-26T15:56:40.222Z,29.10
2019-05-26T15:59:09.487Z,28.10
2019-05-26T16:01:38.781Z,28.60
2019-05-26T16:04:08.040Z,29.50
2019-05-26T16:06:37.308Z,30.20
2019-05-26T16:09:08.174Z,32.00
2019-05-26T16:11:38.183Z,32.10
2019-05-26T16:14:07.505Z,32.70
2019-05-26T16:16:41.085Z,30.30
2019-05-26T16:19:08.069Z,29.70
2019-05-26T16:21:37.662Z,30.40
2019-05-26T16:24:07.086Z,29.20
2019-05-26T16:26:36.668Z,29.60
2019-05-26T16:29:06.115Z,28.90
2019-05-26T16:31:35.374Z,29.60
2019-05-26T16:34:04.632Z,29.80
2019-05-26T16:36:34.183Z,30.60
2019-05-26T16:39:04.995Z,31.20
2019-05-26T16:41:34.523Z,29.90
2019-05-26T16:44:04.068Z,30.40
2019-05-26T16:46:33.323Z,30.30
2019-05-26T16:49:02.658Z,30.70
2019-05-26T16:51:31.928Z,32.60
2019-05-26T16:54:01.447Z,32.30
2019-05-26T16:56:30.759Z,32.20
2019-05-26T16:59:00.032Z,32.60
2019-05-26T17:01:29.340Z,32.30
2019-05-26T17:03:58.607Z,33.30
2019-05-26T17:06:27.875Z,34.50
2019-05-26T17:08:57.143Z,34.60
2019-05-26T17:11:26.415Z,35.60
2019-05-26T17:13:55.690Z,35.90
2019-05-26T17:16:24.949Z,36.60
2019-05-26T17:21:23.172Z,34.20
2019-05-26T17:23:52.443Z,35.90
2019-05-26T17:26:21.713Z,36.30
2019-05-26T17:28:51.074Z,36.10
2019-05-26T17:31:20.339Z,37.10
2019-05-26T17:33:49.613Z,38.40
2019-05-26T17:36:18.880Z,37.40
2019-05-26T17:38:48.154Z,37.50
2019-05-26T17:41:17.406Z,37.40
2019-05-26T17:43:46.691Z,38.00
2019-05-26T17:46:15.961Z,38.20
2019-05-26T17:48:45.223Z,37.80
2019-05-26T17:51:14.487Z,38.40
2019-05-26T17:53:43.758Z,39.00
2019-05-26T17:56:13.086Z,39.00
2019-05-26T17:58:42.482Z,40.10
2019-05-26T18:01:11.858Z,40.80
2019-05-26T18:03:41.310Z,40.90
2019-05-26T18:06:10.572Z,41.10
2019-05-26T18:08:39.917Z,41.20
2019-05-26T18:11:09.213Z,41.20
2019-05-26T18:13:38.476Z,41.80
2019-05-26T18:16:07.809Z,42.20
2019-05-26T18:18:37.094Z,41.70
2019-05-26T18:21:06.442Z,42.10
2019-05-26T18:23:35.999Z,42.30
2019-05-26T18:26:05.436Z,43.70
2019-05-26T18:28:34.698Z,43.50
2019-05-26T18:31:04.317Z,42.90
2019-05-26T18:33:34.949Z,43.60
2019-05-26T18:36:04.313Z,44.00
2019-05-26T18:38:33.577Z,43.50
2019-05-26T18:41:02.864Z,43.60
2019-05-26T18:43:32.278Z,44.20
2019-05-26T18:46:01.535Z,44.70
2019-05-26T18:48:30.878Z,45.40
2019-05-26T18:51:00.158Z,44.80
2019-05-26T18:53:29.996Z,45.00
2019-05-26T18:55:59.422Z,44.60
2019-05-26T18:58:28.987Z,44.90
2019-05-26T19:00:58.272Z,45.00
2019-05-26T19:03:27.824Z,45.20
2019-05-26T19:05:57.404Z,45.90
2019-05-26T19:08:26.679Z,45.80
2019-05-26T19:10:55.943Z,45.80
2019-05-26T19:13:25.210Z,46.30
2019-05-26T19:15:54.822Z,46.20
2019-05-26T19:18:24.078Z,47.10
2019-05-26T19:20:53.515Z,46.90
2019-05-26T19:23:22.782Z,47.10
2019-05-26T19:25:52.055Z,47.00
2019-05-26T19:28:21.335Z,47.20
2019-05-26T19:30:50.948Z,47.30
2019-05-26T19:33:20.543Z,47.20
2019-05-26T19:35:50.083Z,47.30
2019-05-26T19:38:19.663Z,47.40
2019-05-26T19:40:48.960Z,47.50
2019-05-26T19:43:18.280Z,47.40
2019-05-26T19:45:47.895Z,47.60
2019-05-26T19:48:17.227Z,47.80
2019-05-26T19:50:46.487Z,47.50
2019-05-26T19:53:15.938Z,47.90
2019-05-26T19:55:45.487Z,48.50
2019-05-26T19:58:14.750Z,48.30
2019-05-26T20:00:44.019Z,48.00
2019-05-26T20:03:13.286Z,47.90
2019-05-26T20:05:42.550Z,48.30
2019-05-26T20:08:11.822Z,48.30
2019-05-26T20:10:41.088Z,48.10
2019-05-26T20:13:10.434Z,48.50
2019-05-26T20:15:39.759Z,48.60
2019-05-26T20:18:09.030Z,49.80
2019-05-26T20:20:38.299Z,49.70
2019-05-26T20:23:07.561Z,49.50
2019-05-26T20:25:36.829Z,50.00
2019-05-26T20:28:06.168Z,50.40
2019-05-26T20:30:35.438Z,51.00
2019-05-26T20:33:04.775Z,51.50
2019-05-26T20:35:34.047Z,52.30
2019-05-26T20:38:03.306Z,51.80
2019-05-26T20:40:32.587Z,52.80
2019-05-26T20:43:01.852Z,52.90
2019-05-26T20:45:31.123Z,53.60
2019-05-26T20:48:00.388Z,53.30
2019-05-26T20:50:30.186Z,53.50
2019-05-26T20:52:59.857Z,54.00
2019-05-26T20:55:29.111Z,54.10
2019-05-26T20:57:58.370Z,54.00
2019-05-26T21:00:27.716Z,54.60
2019-05-26T21:02:56.991Z,54.70
2019-05-26T21:05:26.261Z,54.90
2019-05-26T21:07:55.513Z,55.00
2019-05-26T21:10:24.784Z,54.50
2019-05-26T21:12:54.050Z,54.90
2019-05-26T21:15:23.317Z,54.80
2019-05-26T21:17:52.602Z,54.80
2019-05-26T21:20:23.583Z,55.90
2019-05-26T21:22:58.373Z,55.40
2019-05-26T21:25:27.639Z,55.40
2019-05-26T21:27:56.956Z,56.50
2019-05-26T21:30:26.228Z,56.60
2019-05-26T21:32:55.496Z,57.00
2019-05-26T21:35:24.777Z,57.80
2019-05-26T21:37:54.308Z,58.20
2019-05-26T21:40:23.754Z,58.70
2019-05-26T21:42:53.022Z,59.30
2019-05-26T21:45:22.352Z,59.20
2019-05-26T21:47:51.723Z,59.40
2019-05-26T21:50:21.063Z,59.40
2019-05-26T21:52:50.326Z,59.70
2019-05-26T21:55:19.599Z,60.10
2019-05-26T21:57:48.859Z,60.70
2019-05-26T22:00:23.642Z,61.00
2019-05-26T22:02:54.527Z,61.20
2019-05-26T22:05:23.793Z,61.10
2019-05-26T22:07:53.532Z,61.60
2019-05-26T22:10:22.798Z,61.80
2019-05-26T22:12:52.066Z,62.00
2019-05-26T22:15:21.331Z,62.50
2019-05-26T22:17:50.609Z,62.90
2019-05-26T22:20:19.863Z,63.00
2019-05-26T22:22:49.127Z,62.80
2019-05-26T22:25:18.400Z,63.20
2019-05-26T22:27:47.671Z,63.00
2019-05-26T22:30:17.570Z,63.80
2019-05-26T22:32:46.839Z,63.70
2019-05-26T22:35:16.097Z,64.00
2019-05-26T22:37:45.663Z,64.10
2019-05-26T22:40:16.199Z,64.40
2019-05-26T22:42:45.465Z,64.90
2019-05-26T22:45:15.371Z,64.70
2019-05-26T22:47:44.634Z,64.80
2019-05-26T22:50:14.352Z,65.20
2019-05-26T22:52:43.615Z,65.40
2019-05-26T22:55:13.063Z,65.70
2019-05-26T22:57:42.345Z,65.90
2019-05-26T23:00:12.273Z,66.10
2019-05-26T23:02:41.786Z,66.30
2019-05-26T23:05:11.289Z,66.90
2019-05-26T23:07:40.569Z,65.30
2019-05-26T23:10:11.279Z,65.90
2019-05-26T23:12:40.540Z,65.70
2019-05-26T23:15:10.450Z,65.50
2019-05-26T23:17:39.719Z,65.50
2019-05-26T23:20:09.523Z,66.20
2019-05-26T23:22:38.787Z,66.10
2019-05-26T23:25:08.491Z,66.70
2019-05-26T23:27:37.765Z,66.40
2019-05-26T23:30:07.963Z,66.40
2019-05-26T23:32:37.228Z,66.20
2019-05-26T23:35:07.027Z,66.00
2019-05-26T23:37:36.549Z,65.70
2019-05-26T23:40:09.019Z,65.70
2019-05-26T23:42:38.260Z,65.40
2019-05-26T23:45:08.055Z,65.30
2019-05-26T23:47:37.333Z,65.10
2019-05-26T23:50:07.603Z,64.90
2019-05-26T23:52:37.215Z,65.60
2019-05-26T23:55:07.265Z,65.20
2019-05-26T23:57:36.565Z,65.50
